createdAt,value
2018-06-14T00:00:58.902Z,5.40
2018-06-14T00:03:40.798Z,5.87
2018-06-14T00:06:22.136Z,6.33
2018-06-14T00:09:01.592Z,5.70
2018-06-14T00:11:38.085Z,5.50
2018-06-14T00:14:24.693Z,5.47
2018-06-14T00:17:07.169Z,5.87
2018-06-14T00:24:44.386Z,5.40
2018-06-14T00:27:22.480Z,5.17
2018-06-14T00:30:27.160Z,5.17
2018-06-14T00:33:22.872Z,6.20
2018-06-14T00:35:56.434Z,5.60
2018-06-14T00:38:31.737Z,5.97
2018-06-14T00:41:06.805Z,5.50
2018-06-14T00:43:50.808Z,5.50
2018-06-14T00:46:29.393Z,5.77
2018-06-14T00:49:13.971Z,5.30
2018-06-14T00:51:53.992Z,6.53
2018-06-14T00:54:34.765Z,6.07
2018-06-14T00:57:24.651Z,6.00
2018-06-14T01:00:00.502Z,7.00
2018-06-14T01:02:43.680Z,5.77
2018-06-14T01:05:29.746Z,6.33
2018-06-14T01:08:14.339Z,6.57
2018-06-14T01:10:48.416Z,5.80
2018-06-14T01:18:25.632Z,5.90
2018-06-14T01:23:58.366Z,6.63
2018-06-14T01:26:33.360Z,6.03
2018-06-14T01:29:17.463Z,6.93
2018-06-14T01:31:54.943Z,6.50
2018-06-14T01:34:38.011Z,7.60
2018-06-14T01:37:12.020Z,7.30
2018-06-14T01:39:50.000Z,7.20
2018-06-14T01:42:36.244Z,7.27
2018-06-14T01:45:19.192Z,6.70
2018-06-14T01:48:07.823Z,7.63
2018-06-14T01:50:49.933Z,7.00
2018-06-14T01:53:32.504Z,6.73
2018-06-14T01:56:34.714Z,7.40
2018-06-14T01:59:10.461Z,6.20
2018-06-14T02:01:46.333Z,7.10
2018-06-14T02:04:23.250Z,7.10
2018-06-14T02:07:00.747Z,7.60
2018-06-14T02:12:44.462Z,7.60
2018-06-14T02:15:24.824Z,7.07
2018-06-14T02:18:01.055Z,6.40
2018-06-14T02:20:43.871Z,7.10
2018-06-14T02:23:24.010Z,6.60
2018-06-14T02:26:02.061Z,7.93
2018-06-14T02:28:42.736Z,6.43
2018-06-14T02:31:17.285Z,7.10
2018-06-14T02:33:53.244Z,6.67
2018-06-14T02:36:32.788Z,6.63
2018-06-14T02:39:09.175Z,7.07
2018-06-14T02:41:46.358Z,6.00
2018-06-14T02:44:24.476Z,6.90
2018-06-14T02:47:15.723Z,6.40
2018-06-14T02:49:57.378Z,7.00
2018-06-14T02:57:54.605Z,7.23
2018-06-14T03:03:31.815Z,5.80
2018-06-14T03:06:05.102Z,5.77
2018-06-14T03:08:38.604Z,6.80
2018-06-14T03:11:15.727Z,6.80
2018-06-14T03:14:02.804Z,6.30
2018-06-14T03:16:43.370Z,7.00
2018-06-14T03:19:23.962Z,7.43
2018-06-14T03:21:58.231Z,7.00
2018-06-14T03:24:39.631Z,6.63
2018-06-14T03:27:15.446Z,6.47
2018-06-14T03:29:51.515Z,7.00
2018-06-14T03:32:40.597Z,7.17
2018-06-14T03:35:14.883Z,6.57
2018-06-14T03:37:56.415Z,5.93
2018-06-14T03:43:25.428Z,6.10
2018-06-14T03:46:06.407Z,6.77
2018-06-14T03:48:48.252Z,6.60
2018-06-14T03:54:05.328Z,7.20
2018-06-14T03:56:47.942Z,7.80
2018-06-14T03:59:41.921Z,5.53
2018-06-14T04:02:21.015Z,6.40
2018-06-14T04:05:08.664Z,6.87
2018-06-14T04:07:44.800Z,6.07
2018-06-14T04:10:22.003Z,6.67
2018-06-14T04:12:59.988Z,6.10
2018-06-14T04:15:36.309Z,6.90
2018-06-14T04:20:51.604Z,6.40
2018-06-14T04:23:42.616Z,5.97
2018-06-14T04:26:26.664Z,5.40
2018-06-14T04:29:10.658Z,5.17
2018-06-14T04:31:51.618Z,5.47
2018-06-14T04:34:36.376Z,4.97
2018-06-14T04:40:10.330Z,5.07
2018-06-14T04:42:54.158Z,3.57
2018-06-14T04:45:33.506Z,4.40
2018-06-14T04:48:10.177Z,5.60
2018-06-14T04:50:50.311Z,4.13
2018-06-14T04:53:39.415Z,4.30
2018-06-14T04:56:21.988Z,4.17
2018-06-14T04:59:04.639Z,5.50
2018-06-14T05:01:49.974Z,4.87
2018-06-14T05:04:32.956Z,5.00
2018-06-14T05:07:18.978Z,5.53
2018-06-14T05:10:03.395Z,4.70
2018-06-14T05:12:49.175Z,5.13
2018-06-14T05:15:48.072Z,5.00
2018-06-14T05:21:25.850Z,4.97
2018-06-14T05:30:01.772Z,4.53
2018-06-14T05:38:18.242Z,5.00
2018-06-14T05:43:53.832Z,4.70
2018-06-14T05:52:14.494Z,6.90
2018-06-14T05:54:43.868Z,6.80
2018-06-14T05:57:12.792Z,6.37
2018-06-14T05:59:42.713Z,7.70
2018-06-14T06:02:12.022Z,7.50
2018-06-14T06:04:40.859Z,4.50
2018-06-14T06:07:09.567Z,5.43
2018-06-14T06:09:38.487Z,5.33
2018-06-14T06:12:07.712Z,5.87
2018-06-14T06:14:42.381Z,5.20
2018-06-14T06:17:19.884Z,5.63
2018-06-14T06:22:38.247Z,5.80
2018-06-14T06:25:07.319Z,5.17
2018-06-14T06:27:36.535Z,5.77
2018-06-14T06:30:07.124Z,4.60
2018-06-14T06:32:38.665Z,4.90
2018-06-14T06:35:08.097Z,5.30
2018-06-14T06:37:37.292Z,6.60
2018-06-14T06:40:06.269Z,6.23
2018-06-14T06:42:35.202Z,5.50
2018-06-14T06:45:06.084Z,6.40
2018-06-14T06:47:36.137Z,7.33
2018-06-14T06:50:05.295Z,7.70
2018-06-14T06:52:34.246Z,8.90
2018-06-14T06:55:03.459Z,7.10
2018-06-14T06:57:32.181Z,7.87
2018-06-14T07:00:00.984Z,6.90
2018-06-14T07:02:29.870Z,6.90
2018-06-14T07:04:58.714Z,6.70
2018-06-14T07:07:27.645Z,7.53
2018-06-14T07:09:57.354Z,5.03
2018-06-14T07:12:28.102Z,6.23
2018-06-14T07:14:57.290Z,6.10
2018-06-14T07:17:27.055Z,6.23
2018-06-14T07:19:56.658Z,5.97
2018-06-14T07:22:26.902Z,6.67
2018-06-14T07:24:56.256Z,6.93
2018-06-14T07:27:25.835Z,6.43
2018-06-14T07:29:55.400Z,6.77
2018-06-14T07:32:24.638Z,5.27
2018-06-14T07:34:53.833Z,5.20
2018-06-14T07:37:22.800Z,3.60
2018-06-14T07:39:52.256Z,4.90
2018-06-14T07:42:21.110Z,4.20
2018-06-14T07:44:50.275Z,5.27
2018-06-14T07:47:19.257Z,5.37
2018-06-14T07:49:50.018Z,3.70
2018-06-14T07:52:20.097Z,2.47
2018-06-14T07:54:48.929Z,3.00
2018-06-14T07:57:19.542Z,2.87
2018-06-14T07:59:48.540Z,3.30
2018-06-14T08:02:18.022Z,2.40
2018-06-14T08:04:47.695Z,2.17
2018-06-14T08:07:16.657Z,1.77
2018-06-14T08:09:45.863Z,2.27
2018-06-14T08:12:15.029Z,1.90
2018-06-14T08:14:43.857Z,3.93
2018-06-14T08:17:12.590Z,2.80
2018-06-14T08:19:41.536Z,3.10
2018-06-14T08:22:10.409Z,3.00
2018-06-14T08:24:39.332Z,2.87
2018-06-14T08:27:08.149Z,3.80
2018-06-14T08:29:37.272Z,5.30
2018-06-14T08:32:06.281Z,3.10
2018-06-14T08:34:35.212Z,2.73
2018-06-14T08:37:04.116Z,2.33
2018-06-14T08:39:33.394Z,2.60
2018-06-14T08:42:02.152Z,2.87
2018-06-14T08:44:31.330Z,3.00
2018-06-14T08:47:00.029Z,2.83
2018-06-14T08:49:28.940Z,1.87
2018-06-14T08:51:58.198Z,2.53
2018-06-14T08:54:27.186Z,2.80
2018-06-14T08:56:56.083Z,2.30
2018-06-14T08:59:24.875Z,2.60
2018-06-14T09:01:53.677Z,2.20
2018-06-14T09:04:22.600Z,2.70
2018-06-14T09:06:51.531Z,2.03
2018-06-14T09:09:20.624Z,2.00
2018-06-14T09:11:49.851Z,2.13
2018-06-14T09:14:18.841Z,2.40
2018-06-14T09:16:47.565Z,2.00
2018-06-14T09:19:16.428Z,2.50
2018-06-14T09:21:45.158Z,2.80
2018-06-14T09:24:14.187Z,2.33
2018-06-14T09:26:43.082Z,2.37
2018-06-14T09:29:11.971Z,1.83
2018-06-14T09:31:40.977Z,2.27
2018-06-14T09:34:10.395Z,2.00
2018-06-14T09:36:39.194Z,2.30
2018-06-14T09:39:09.368Z,2.17
2018-06-14T09:41:38.190Z,2.13
2018-06-14T09:44:07.259Z,1.90
2018-06-14T09:46:36.956Z,2.27
2018-06-14T09:49:14.983Z,1.90
2018-06-14T09:51:46.440Z,2.40
2018-06-14T09:54:16.341Z,2.70
2018-06-14T09:56:45.529Z,4.13
2018-06-14T09:59:15.255Z,2.83
2018-06-14T10:01:44.264Z,2.57
2018-06-14T10:04:13.260Z,3.00
2018-06-14T10:06:42.244Z,3.50
2018-06-14T10:09:12.650Z,3.50
2018-06-14T10:11:43.058Z,2.60
2018-06-14T10:14:13.140Z,2.90
2018-06-14T10:16:42.184Z,2.30
2018-06-14T10:19:11.758Z,2.60
2018-06-14T10:21:41.315Z,2.80
2018-06-14T10:24:10.392Z,2.50
2018-06-14T10:26:39.377Z,2.73
2018-06-14T10:29:08.682Z,3.90
2018-06-14T10:31:37.495Z,2.10
2018-06-14T10:34:06.462Z,2.83
2018-06-14T10:36:35.262Z,2.80
2018-06-14T10:39:05.663Z,2.10
2018-06-14T10:41:34.592Z,2.43
2018-06-14T10:44:03.693Z,2.70
2018-06-14T10:46:33.009Z,4.90
2018-06-14T10:49:01.973Z,2.00
2018-06-14T10:51:31.279Z,3.00
2018-06-14T10:54:00.267Z,2.20
2018-06-14T10:56:29.197Z,2.70
2018-06-14T10:58:58.625Z,2.80
2018-06-14T11:01:27.736Z,2.73
2018-06-14T11:03:57.259Z,2.33
2018-06-14T11:06:26.461Z,2.50
2018-06-14T11:08:55.248Z,1.90
2018-06-14T11:11:24.262Z,1.70
2018-06-14T11:13:53.044Z,2.50
2018-06-14T11:16:22.097Z,2.50
2018-06-14T11:18:50.891Z,2.17
2018-06-14T11:21:19.678Z,2.40
2018-06-14T11:23:48.384Z,2.63
2018-06-14T11:26:18.353Z,2.80
2018-06-14T11:28:47.613Z,2.50
2018-06-14T11:31:16.396Z,2.20
2018-06-14T11:33:45.374Z,2.13
2018-06-14T11:36:14.863Z,2.47
2018-06-14T11:38:44.308Z,2.30
2018-06-14T11:41:13.263Z,3.00
2018-06-14T11:43:42.353Z,2.47
2018-06-14T11:46:11.271Z,3.10
2018-06-14T11:48:40.206Z,2.97
2018-06-14T11:51:08.959Z,2.70
2018-06-14T11:53:38.002Z,2.93
2018-06-14T11:56:07.398Z,2.80
2018-06-14T11:58:36.343Z,2.30
2018-06-14T12:01:05.508Z,3.30
2018-06-14T12:03:34.335Z,7.80
2018-06-14T12:06:03.257Z,3.40
2018-06-14T12:08:32.487Z,3.07
2018-06-14T12:11:02.985Z,1.60
2018-06-14T12:13:31.686Z,2.60
2018-06-14T12:16:00.463Z,2.07
2018-06-14T12:18:29.253Z,2.03
2018-06-14T12:20:58.126Z,1.57
2018-06-14T12:23:27.147Z,2.20
2018-06-14T12:25:56.481Z,2.43
2018-06-14T12:28:25.599Z,2.03
2018-06-14T12:30:54.654Z,1.83
2018-06-14T12:33:24.517Z,1.93
2018-06-14T12:35:53.883Z,1.90
2018-06-14T12:38:22.876Z,1.87
2018-06-14T12:40:51.548Z,2.50
2018-06-14T12:43:20.452Z,2.17
2018-06-14T12:45:49.366Z,2.00
2018-06-14T12:48:18.251Z,2.10
2018-06-14T12:50:47.002Z,2.10
2018-06-14T12:53:15.863Z,2.00
2018-06-14T12:55:44.810Z,2.43
2018-06-14T12:58:13.511Z,2.40
2018-06-14T13:00:42.275Z,2.47
2018-06-14T13:03:10.915Z,2.57
2018-06-14T13:05:39.760Z,2.73
2018-06-14T13:08:08.793Z,2.17
2018-06-14T13:10:37.988Z,2.13
2018-06-14T13:13:06.898Z,2.63
2018-06-14T13:15:40.327Z,2.97
2018-06-14T13:18:09.512Z,2.50
2018-06-14T13:20:38.333Z,3.20
2018-06-14T13:23:07.095Z,2.33
2018-06-14T13:25:35.933Z,3.20
2018-06-14T13:28:05.782Z,2.53
2018-06-14T13:30:34.548Z,2.27
2018-06-14T13:33:03.341Z,2.20
2018-06-14T13:35:32.106Z,2.63
2018-06-14T13:38:00.837Z,2.30
2018-06-14T13:40:29.671Z,2.37
2018-06-14T13:42:58.313Z,2.10
2018-06-14T13:45:26.956Z,2.50
2018-06-14T13:47:55.751Z,2.63
2018-06-14T13:50:24.480Z,2.43
2018-06-14T13:52:53.382Z,6.10
2018-06-14T13:55:22.070Z,4.20
2018-06-14T13:57:50.903Z,3.10
2018-06-14T14:00:19.551Z,2.43
2018-06-14T14:02:48.169Z,2.07
2018-06-14T14:05:16.796Z,3.30
2018-06-14T14:07:45.533Z,3.40
2018-06-14T14:10:14.321Z,2.30
2018-06-14T14:12:42.996Z,2.50
2018-06-14T14:15:12.015Z,2.70
2018-06-14T14:17:40.722Z,2.20
2018-06-14T14:20:09.497Z,2.60
2018-06-14T14:22:38.143Z,13.10
2018-06-14T14:25:07.185Z,6.10
2018-06-14T14:27:36.161Z,2.93
2018-06-14T14:30:04.947Z,3.90
2018-06-14T14:32:33.736Z,2.73
2018-06-14T14:35:02.449Z,3.23
2018-06-14T14:37:31.150Z,6.10
2018-06-14T14:39:59.806Z,2.60
2018-06-14T14:42:28.715Z,2.40
2018-06-14T14:44:58.969Z,2.47
2018-06-14T14:47:27.595Z,3.73
2018-06-14T14:49:56.469Z,2.70
2018-06-14T14:52:25.222Z,2.70
2018-06-14T14:54:53.842Z,3.10
2018-06-14T14:57:22.628Z,3.10
2018-06-14T14:59:51.255Z,3.40
2018-06-14T15:02:19.918Z,3.00
2018-06-14T15:04:48.654Z,3.40
2018-06-14T15:07:17.277Z,3.17
2018-06-14T15:09:46.062Z,2.57
2018-06-14T15:12:14.756Z,2.80
2018-06-14T15:14:43.453Z,2.33
2018-06-14T15:17:12.499Z,2.27
2018-06-14T15:19:41.107Z,2.70
2018-06-14T15:22:09.747Z,2.00
2018-06-14T15:24:38.515Z,2.93
2018-06-14T15:27:07.353Z,2.60
2018-06-14T15:29:35.964Z,2.67
2018-06-14T15:32:04.638Z,2.10
2018-06-14T15:34:33.588Z,2.23
2018-06-14T15:37:02.380Z,2.50
2018-06-14T15:39:31.237Z,2.57
2018-06-14T15:42:01.131Z,3.20
2018-06-14T15:44:29.922Z,4.17
2018-06-14T15:46:58.863Z,2.70
2018-06-14T15:49:27.737Z,2.40
2018-06-14T15:51:56.968Z,3.97
2018-06-14T15:54:25.808Z,2.63
2018-06-14T15:56:54.562Z,2.80
2018-06-14T15:59:23.565Z,2.90
2018-06-14T16:01:53.563Z,2.90
2018-06-14T16:04:22.304Z,2.83
2018-06-14T16:06:51.038Z,2.70
2018-06-14T16:09:19.623Z,3.00
2018-06-14T16:11:48.307Z,2.60
2018-06-14T16:14:17.016Z,3.03
2018-06-14T16:16:45.702Z,3.27
2018-06-14T16:19:14.574Z,2.83
2018-06-14T16:21:43.771Z,3.43
2018-06-14T16:24:12.438Z,3.00
2018-06-14T16:26:41.134Z,3.17
2018-06-14T16:29:09.796Z,3.30
2018-06-14T16:31:38.506Z,2.50
2018-06-14T16:34:07.042Z,3.10
2018-06-14T16:36:35.691Z,2.90
2018-06-14T16:39:06.694Z,3.20
2018-06-14T16:41:35.777Z,3.27
2018-06-14T16:44:04.604Z,3.00
2018-06-14T16:46:33.403Z,2.70
2018-06-14T16:49:02.180Z,2.37
2018-06-14T16:51:30.969Z,3.37
2018-06-14T16:53:59.811Z,3.37
2018-06-14T16:56:28.517Z,2.70
2018-06-14T16:58:57.196Z,3.47
2018-06-14T17:01:25.981Z,3.30
2018-06-14T17:03:54.632Z,3.23
2018-06-14T17:06:23.430Z,3.13
2018-06-14T17:08:52.424Z,2.47
2018-06-14T17:11:21.042Z,2.20
2018-06-14T17:13:49.799Z,1.87
2018-06-14T17:16:18.559Z,2.80
2018-06-14T17:18:47.244Z,1.73
2018-06-14T17:21:15.957Z,2.30
2018-06-14T17:23:44.704Z,2.23
2018-06-14T17:26:13.392Z,2.30
2018-06-14T17:28:42.437Z,2.10
2018-06-14T17:31:11.226Z,1.90
2018-06-14T17:33:39.872Z,1.93
2018-06-14T17:36:08.584Z,1.83
2018-06-14T17:38:37.326Z,2.10
2018-06-14T17:41:06.166Z,2.23
2018-06-14T17:43:34.887Z,1.97
2018-06-14T17:46:03.555Z,3.00
2018-06-14T17:48:32.330Z,1.53
2018-06-14T17:51:01.052Z,2.63
2018-06-14T17:53:30.480Z,2.37
2018-06-14T17:55:59.497Z,2.60
2018-06-14T17:58:28.159Z,2.43
2018-06-14T18:00:57.076Z,2.10
2018-06-14T18:03:25.851Z,2.23
2018-06-14T18:05:54.646Z,3.00
2018-06-14T18:08:23.467Z,3.40
2018-06-14T18:10:53.388Z,2.57
2018-06-14T18:13:22.098Z,2.63
2018-06-14T18:15:51.058Z,3.70
2018-06-14T18:18:19.972Z,3.70
2018-06-14T18:20:48.756Z,2.80
2018-06-14T18:23:17.436Z,3.67
2018-06-14T18:25:46.175Z,3.23
2018-06-14T18:28:14.945Z,3.17
2018-06-14T18:30:43.847Z,3.70
2018-06-14T18:33:12.635Z,3.13
2018-06-14T18:35:41.378Z,3.23
2018-06-14T18:38:10.112Z,4.13
2018-06-14T18:40:38.932Z,3.40
2018-06-14T18:43:07.707Z,3.57
2018-06-14T18:45:37.531Z,2.80
2018-06-14T18:48:06.278Z,3.37
2018-06-14T18:50:35.023Z,4.20
2018-06-14T18:53:03.731Z,3.33
2018-06-14T18:55:32.408Z,4.20
2018-06-14T18:58:01.193Z,3.90
2018-06-14T19:00:29.885Z,3.73
2018-06-14T19:02:58.640Z,4.23
2018-06-14T19:05:27.428Z,4.40
2018-06-14T19:07:56.139Z,4.10
2018-06-14T19:10:24.821Z,3.40
2018-06-14T19:12:53.670Z,4.17
2018-06-14T19:15:22.358Z,3.73
2018-06-14T19:17:51.229Z,4.33
2018-06-14T19:20:20.054Z,4.30
2018-06-14T19:22:48.847Z,5.33
2018-06-14T19:25:17.432Z,4.40
2018-06-14T19:27:46.189Z,4.40
2018-06-14T19:30:15.009Z,3.90
2018-06-14T19:32:43.786Z,4.73
2018-06-14T19:35:12.806Z,4.17
2018-06-14T19:37:41.508Z,3.90
2018-06-14T19:40:10.425Z,4.00
2018-06-14T19:42:39.098Z,3.30
2018-06-14T19:45:13.674Z,4.40
2018-06-14T19:47:42.439Z,3.80
2018-06-14T19:50:13.242Z,4.07
2018-06-14T19:52:42.072Z,3.50
2018-06-14T19:55:11.149Z,4.27
2018-06-14T19:57:40.244Z,4.43
2018-06-14T20:00:09.494Z,4.80
2018-06-14T20:02:38.285Z,4.63
2018-06-14T20:05:07.823Z,4.80
2018-06-14T20:07:36.938Z,4.70
2018-06-14T20:10:05.716Z,4.60
2018-06-14T20:12:34.597Z,4.97
2018-06-14T20:15:03.815Z,4.50
2018-06-14T20:17:32.921Z,4.90
2018-06-14T20:20:02.003Z,5.43
2018-06-14T20:22:30.859Z,5.77
2018-06-14T20:25:00.378Z,6.00
2018-06-14T20:27:29.825Z,4.97
2018-06-14T20:29:58.770Z,5.80
2018-06-14T20:32:27.882Z,5.00
2018-06-14T20:34:57.009Z,5.30
2018-06-14T20:37:26.389Z,6.00
2018-06-14T20:39:55.212Z,7.73
2018-06-14T20:42:24.523Z,10.53
2018-06-14T20:44:53.487Z,7.87
2018-06-14T20:47:22.545Z,8.50
2018-06-14T20:49:51.344Z,6.37
2018-06-14T20:52:21.465Z,5.60
2018-06-14T20:54:50.311Z,6.37
2018-06-14T20:57:19.408Z,5.23
2018-06-14T20:59:48.273Z,6.67
2018-06-14T21:02:17.809Z,6.20
2018-06-14T21:04:46.757Z,6.33
2018-06-14T21:07:15.656Z,6.13
2018-06-14T21:09:45.074Z,6.00
2018-06-14T21:12:13.830Z,6.33
2018-06-14T21:14:42.926Z,6.40
2018-06-14T21:17:12.157Z,5.83
2018-06-14T21:19:41.042Z,7.20
2018-06-14T21:22:09.899Z,7.07
2018-06-14T21:24:38.820Z,5.97
2018-06-14T21:27:07.856Z,5.20
2018-06-14T21:29:36.868Z,5.30
2018-06-14T21:32:06.602Z,5.37
2018-06-14T21:34:35.814Z,5.20
2018-06-14T21:37:05.089Z,6.43
2018-06-14T21:39:34.593Z,8.37
2018-06-14T21:42:03.583Z,7.23
2018-06-14T21:44:32.681Z,6.37
2018-06-14T21:47:02.301Z,6.70
2018-06-14T21:49:31.214Z,6.97
2018-06-14T21:52:01.131Z,6.70
2018-06-14T21:54:30.186Z,6.50
2018-06-14T21:56:58.994Z,6.83
2018-06-14T21:59:27.652Z,6.60
2018-06-14T22:01:56.427Z,6.70
2018-06-14T22:04:25.173Z,6.83
2018-06-14T22:06:53.848Z,7.70
2018-06-14T22:09:22.606Z,7.63
2018-06-14T22:11:51.417Z,7.40
2018-06-14T22:14:20.276Z,6.80
2018-06-14T22:16:49.265Z,7.27
2018-06-14T22:19:18.107Z,7.17
2018-06-14T22:21:46.972Z,6.60
2018-06-14T22:24:16.294Z,7.00
2018-06-14T22:26:45.268Z,6.93
2018-06-14T22:29:14.503Z,5.80
2018-06-14T22:31:44.161Z,6.67
2018-06-14T22:34:24.246Z,6.67
2018-06-14T22:36:53.047Z,6.43
2018-06-14T22:39:22.002Z,6.10
2018-06-14T22:41:50.917Z,6.40
2018-06-14T22:44:19.713Z,6.43
2018-06-14T22:46:48.713Z,7.30
2018-06-14T22:49:17.763Z,6.50
2018-06-14T22:52:57.524Z,6.90
2018-06-14T22:55:26.918Z,6.30
2018-06-14T22:57:55.692Z,7.00
2018-06-14T23:01:41.233Z,6.43
2018-06-14T23:04:11.499Z,6.47
2018-06-14T23:06:40.410Z,6.67
2018-06-14T23:09:21.364Z,6.57
2018-06-14T23:11:50.404Z,6.53
2018-06-14T23:14:20.914Z,6.40
2018-06-14T23:16:49.615Z,7.23
2018-06-14T23:19:18.413Z,6.80
2018-06-14T23:21:47.243Z,6.80
2018-06-14T23:24:16.060Z,6.33
2018-06-14T23:26:44.767Z,6.30
2018-06-14T23:29:13.398Z,6.30
2018-06-14T23:31:42.077Z,6.13
2018-06-14T23:34:10.707Z,6.50
2018-06-14T23:36:39.563Z,5.20
2018-06-14T23:39:08.278Z,6.40
2018-06-14T23:41:36.940Z,6.97
2018-06-14T23:44:05.809Z,6.30
2018-06-14T23:46:34.534Z,5.53
2018-06-14T23:49:03.216Z,6.30
2018-06-14T23:51:31.889Z,5.70
2018-06-14T23:54:00.690Z,5.90
2018-06-14T23:56:29.354Z,6.40
2018-06-14T23:58:58.008Z,6.23
